Thunder radar more information blitzortung!


Radar de pluja more information rain snow radar


Visita la nostra xarxa de llocs de meteo:

Template documentation
and downloads

And another site



No particular awareness of the weather is required.    There are no Weather-warnings

Pagina Historial Weather Underground text

Diari Resum January 22, 2018 Unitats:  Mètric    Imperial   Tant
« Previous Dia
SegĂźent Dia »
Diari Setmana Mensual Anual Personalitzada
  Maxima: Minima: Media:
Temperatura: -17.8 °C -11.5 °C -9.9 °C
Punt de rosada: -17.8 °C -15.3 °C -14.4 °C
Humitat: Humidity % 50 % 58 %
Wind Speed: 0 km/h 0 km/h 8.7 km/h
RĂ fegues de vent: 0 km/h - -
Vent:- - SW
Pression baro: 0 hPa 34601.5 hPa -
Precipitacions: 0 mm    
Historical Graphs
 
 
Dades de taula per January 22, 2018
Temps Temperatura Punt de rosada Pression baro Vent Wind Speed RĂ fegues de vent Humitat Rainfall Rate (Hourly)
-17.8 °C -17.8 °C 0 hPa Calm     Humidity % 0 mm
00:03 -10.3 °C -14.5 °C 34635.4 hPa WSW 12.7 km/h 12.7 km/h 60 % 0 mm
00:08 -10.3 °C -14.5 °C 34635.4 hPa West 16.6 km/h 16.6 km/h 60 % 0 mm
00:13 -10.3 °C -14.5 °C 34635.4 hPa West 14.5 km/h 14.5 km/h 60 % 0 mm
00:18 -10.3 °C -14.5 °C 34635.4 hPa West 15 km/h 15 km/h 60 % 0 mm
00:23 -10.3 °C -14.6 °C 34635.4 hPa West 15 km/h 15 km/h 60 % 0 mm
00:28 -10.3 °C -14.4 °C 34635.4 hPa WSW 17.9 km/h 17.9 km/h 61 % 0 mm
00:33 -10.3 °C -14.4 °C 34635.4 hPa West 11.9 km/h 11.9 km/h 61 % 0 mm
00:43 -10.4 °C -14.5 °C 34635.4 hPa West 11.9 km/h 11.9 km/h 61 % 0 mm
00:48 -10.4 °C -14.5 °C 34635.4 hPa WNW 11.9 km/h 11.9 km/h 61 % 0 mm
00:53 -10.4 °C -14.5 °C 34635.4 hPa West 18.3 km/h 18.3 km/h 61 % 0 mm
00:58 -10.4 °C -14.5 °C 34635.4 hPa South 15 km/h 15 km/h 61 % 0 mm
01:03 -10.4 °C -14.6 °C 34669.3 hPa WSW 15 km/h 15 km/h 61 % 0 mm
01:08 -10.4 °C -14.6 °C 34669.3 hPa WSW 23.8 km/h 23.8 km/h 61 % 0 mm
01:13 -10.4 °C -14.6 °C 34669.3 hPa West 12.7 km/h 12.7 km/h 61 % 0 mm
01:18 -10.4 °C -14.6 °C 34635.4 hPa WSW 11.9 km/h 11.9 km/h 61 % 0 mm
01:23 -10.5 °C -14.6 °C 34635.4 hPa West 16.6 km/h 16.6 km/h 61 % 0 mm
01:28 -10.6 °C -14.6 °C 34635.4 hPa WSW 8.5 km/h 8.5 km/h 61 % 0 mm
01:33 -10.6 °C -14.6 °C 34635.4 hPa WNW 11.9 km/h 11.9 km/h 61 % 0 mm
01:38 -10.6 °C -14.7 °C 34635.4 hPa SSW 11.9 km/h 11.9 km/h 61 % 0 mm
01:43 -10.6 °C -14.6 °C 34635.4 hPa WNW 9 km/h 9 km/h 62 % 0 mm
01:48 -10.7 °C -14.6 °C 34635.4 hPa NNE 5.1 km/h 5.1 km/h 62 % 0 mm
01:53 -10.7 °C -14.6 °C 34635.4 hPa West 9 km/h 9 km/h 62 % 0 mm
01:58 -10.7 °C -14.7 °C 34635.4 hPa NE 6 km/h 6 km/h 62 % 0 mm
02:04 -10.7 °C -14.7 °C 34635.4 hPa West 6 km/h 6 km/h 62 % 0 mm
02:09 -10.7 °C -14.6 °C 34635.4 hPa WNW 11.9 km/h 11.9 km/h 62 % 0 mm
02:14 -10.7 °C -14.7 °C 34635.4 hPa ENE 4.2 km/h   62 % 0 mm
02:19 -10.6 °C -14.6 °C 34635.4 hPa WSW 6.8 km/h 6.8 km/h 62 % 0 mm
02:24 -10.7 °C -14.6 °C 34635.4 hPa ESE 9 km/h 9 km/h 62 % 0 mm
02:29 -10.7 °C -14.7 °C 34635.4 hPa NNE 6 km/h 6 km/h 62 % 0 mm
02:34 -10.7 °C -14.7 °C 34635.4 hPa SW 11.9 km/h 11.9 km/h 62 % 0 mm
02:39 -10.7 °C -14.7 °C 34635.4 hPa WSW 11.9 km/h 11.9 km/h 62 % 0 mm
02:44 -10.7 °C -14.6 °C 34635.4 hPa ENE 9 km/h 9 km/h 63 % 0 mm
02:49 -10.7 °C -14.6 °C 34635.4 hPa NW 9 km/h 9 km/h 63 % 0 mm
02:54 -10.8 °C -14.6 °C 34635.4 hPa WSW 6 km/h 6 km/h 63 % 0 mm
02:59 -10.8 °C -14.6 °C 34635.4 hPa SW 9 km/h 9 km/h 63 % 0 mm
03:04 -10.8 °C -14.6 °C 34635.4 hPa WNW 9 km/h 9 km/h 63 % 0 mm
03:09 -10.8 °C -14.6 °C 34635.4 hPa ESE 9 km/h 9 km/h 63 % 0 mm
03:14 -10.8 °C -14.6 °C 34635.4 hPa ENE 15 km/h 15 km/h 63 % 0 mm
03:19 -10.8 °C -14.6 °C 34635.4 hPa NNE 17.9 km/h 17.9 km/h 63 % 0 mm
03:25 -10.8 °C -14.5 °C 34635.4 hPa ESE 5.1 km/h 7.7 km/h 64 % 0 mm
03:30 -10.8 °C -14.5 °C 34635.4 hPa WSW 9 km/h 9 km/h 64 % 0 mm
03:35 -10.8 °C -14.6 °C 34635.4 hPa ENE 9 km/h 9 km/h 63 % 0 mm
03:40 -10.8 °C -14.5 °C 34635.4 hPa West 6.3 km/h 6.3 km/h 64 % 0 mm
03:45 -10.8 °C -14.5 °C 34635.4 hPa WSW 11.9 km/h 11.9 km/h 64 % 0 mm
03:55 -10.8 °C -14.5 °C 34635.4 hPa ENE 12.7 km/h 12.7 km/h 64 % 0 mm
04:00 -10.9 °C -14.6 °C 34635.4 hPa West 9 km/h 9 km/h 64 % 0 mm
04:05 -10.9 °C -14.6 °C 34635.4 hPa ENE 9 km/h 9 km/h 64 % 0 mm
04:15 -10.8 °C -14.4 °C 34635.4 hPa East 17.9 km/h 17.9 km/h 65 % 0 mm
04:20 -10.9 °C -14.6 °C 34635.4 hPa NW 8.5 km/h 8.5 km/h 64 % 0 mm
04:25 -10.9 °C -14.6 °C 34635.4 hPa WSW 11.9 km/h 11.9 km/h 64 % 0 mm
04:30 -10.9 °C -14.5 °C 34635.4 hPa NNW 6 km/h 6 km/h 65 % 0 mm
04:35 -10.9 °C -14.5 °C 34635.4 hPa NNW 11.9 km/h 11.9 km/h 65 % 0 mm
04:40 -10.9 °C -14.6 °C 34635.4 hPa West 11.9 km/h 11.9 km/h 64 % 0 mm
04:45 -10.9 °C -14.5 °C 34635.4 hPa WSW 9 km/h 9 km/h 65 % 0 mm
04:55 -11 °C -14.6 °C 34635.4 hPa West 5.1 km/h 12.9 km/h 65 % 0 mm
05:20 -11.1 °C -14.6 °C 34635.4 hPa WSW 11.9 km/h 11.9 km/h 65 % 0 mm
05:25 -11.1 °C -14.6 °C 34635.4 hPa WNW 20.9 km/h 20.9 km/h 65 % 0 mm
05:30 -11.1 °C -14.6 °C 34635.4 hPa WSW 15.6 km/h 15.6 km/h 65 % 0 mm
05:40 -11.1 °C -14.5 °C 34601.5 hPa NNW 9.3 km/h 9.3 km/h 66 % 0 mm
05:45 -11 °C -14.4 °C 34601.5 hPa NNW 9 km/h 9 km/h 66 % 0 mm
05:50 -11 °C -14.4 °C 34635.4 hPa NE 11.9 km/h 11.9 km/h 66 % 0 mm
05:55 -11 °C -14.4 °C 34635.4 hPa West 6 km/h 6 km/h 66 % 0 mm
06:00 -11 °C -14.6 °C 34635.4 hPa NE 17.9 km/h 17.9 km/h 65 % 0 mm
06:05 -11 °C -14.4 °C 34635.4 hPa SE 15 km/h 15 km/h 66 % 0 mm
06:10 -11 °C -14.6 °C 34635.4 hPa SW 11.9 km/h 11.9 km/h 65 % 0 mm
06:15 -11.1 °C -14.6 °C 34635.4 hPa WNW 9 km/h 9 km/h 65 % 0 mm
06:20 -11.2 °C -14.6 °C 34635.4 hPa NNE 12.7 km/h 12.7 km/h 66 % 0 mm
06:25 -11.2 °C -14.6 °C 34635.4 hPa ESE 9 km/h 9 km/h 66 % 0 mm
06:30 -11.3 °C -14.7 °C 34635.4 hPa West 9.3 km/h 9.3 km/h 66 % 0 mm
06:35 -11.3 °C -14.7 °C 34635.4 hPa South 3.1 km/h 3.7 km/h 66 % 0 mm
06:40 -11.3 °C -14.7 °C 34635.4 hPa WSW 9 km/h 9 km/h 66 % 0 mm
06:50 -11.4 °C -14.7 °C 34635.4 hPa WSW 9.8 km/h   67 % 0 mm
06:55 -11.3 °C -14.6 °C 34635.4 hPa SW 6 km/h 6 km/h 67 % 0 mm
07:00 -11.4 °C -14.7 °C 34635.4 hPa ENE 4.2 km/h 4.2 km/h 67 % 0 mm
07:05 -11.4 °C -14.8 °C 34635.4 hPa NNW 6 km/h 6 km/h 66 % 0 mm
07:10 -11.4 °C -14.7 °C 34635.4 hPa WSW 8 km/h 8 km/h 67 % 0 mm
07:15 -11.3 °C -14.6 °C 34635.4 hPa NW 20.9 km/h 20.9 km/h 67 % 0 mm
07:20 -11.4 °C -14.7 °C 34635.4 hPa NW 15 km/h 15 km/h 67 % 0 mm
07:25 -11.4 °C -14.7 °C 34635.4 hPa NNW 14.5 km/h 14.5 km/h 67 % 0 mm
07:30 -11.4 °C -14.7 °C 34635.4 hPa West 6 km/h 6 km/h 67 % 0 mm
07:35 -11.4 °C -14.7 °C 34669.3 hPa WNW 11.9 km/h   67 % 0 mm
07:40 -11.4 °C -14.7 °C 34669.3 hPa WNW 11.9 km/h 11.9 km/h 67 % 0 mm
07:45 -11.4 °C -14.7 °C 34669.3 hPa West 9 km/h 9 km/h 67 % 0 mm
07:50 -11.4 °C -14.7 °C 34635.4 hPa NE 17.9 km/h 17.9 km/h 67 % 0 mm
07:55 -11.4 °C -14.7 °C 34635.4 hPa WSW 11.9 km/h 11.9 km/h 67 % 0 mm
08:00 -11.5 °C -14.8 °C 34635.4 hPa NW 9 km/h 9 km/h 67 % 0 mm
08:05 -11.5 °C -14.8 °C 34669.3 hPa WNW 11.9 km/h 11.9 km/h 67 % 0 mm
08:10 -11.5 °C -14.8 °C 34669.3 hPa WSW 11.9 km/h 11.9 km/h 67 % 0 mm
08:15 -11.5 °C -14.8 °C 34669.3 hPa SW 9 km/h 9 km/h 67 % 0 mm
08:20 -11.5 °C -14.8 °C 34669.3 hPa WNW 9 km/h 9 km/h 67 % 0 mm
08:25 -11.5 °C -14.8 °C 34669.3 hPa WSW 6.3 km/h 6.3 km/h 67 % 0 mm
08:30 -11.4 °C -14.7 °C 34669.3 hPa WSW 11.9 km/h 11.9 km/h 67 % 0 mm
08:35 -11.4 °C -14.7 °C 34669.3 hPa West 10.3 km/h 10.3 km/h 67 % 0 mm
08:40 -11.4 °C -14.7 °C 34669.3 hPa ENE 6 km/h 6 km/h 67 % 0 mm
08:45 -11.3 °C -14.5 °C 34669.3 hPa NW 3.1 km/h 3.1 km/h 68 % 0 mm
08:50 -11.3 °C -14.6 °C 34669.3 hPa West 5.1 km/h 5.1 km/h 67 % 0 mm
08:55 -11.1 °C -14.3 °C 34669.3 hPa Calm     67 % 0 mm
09:00 -11.1 °C -14.3 °C 34669.3 hPa NNW 3.1 km/h   67 % 0 mm
09:05 -11.1 °C -14.3 °C 34669.3 hPa NE 6 km/h 6 km/h 67 % 0 mm
09:10 -11.1 °C -14.3 °C 34669.3 hPa ENE 6 km/h   67 % 0 mm
09:15 -10.9 °C -14.2 °C 34669.3 hPa ENE 3.1 km/h 3.1 km/h 67 % 0 mm
09:20 -10.8 °C -14.2 °C 34669.3 hPa NE 6.8 km/h 6.8 km/h 66 % 0 mm
09:25 -10.9 °C -14.3 °C 34669.3 hPa ENE 9 km/h 9 km/h 66 % 0 mm
09:30 -11.1 °C -14.6 °C 34669.3 hPa NNE 9 km/h 9 km/h 65 % 0 mm
09:35 -11.1 °C -14.6 °C 34669.3 hPa NNW 9 km/h 9 km/h 66 % 0 mm
09:40 -11.1 °C -14.6 °C 34669.3 hPa NNE 7.6 km/h 7.6 km/h 66 % 0 mm
09:50 -11 °C -14.4 °C 34669.3 hPa NNE 6.8 km/h 6.8 km/h 66 % 0 mm
10:00 -10.9 °C -14.3 °C 34669.3 hPa NE 6 km/h 6 km/h 66 % 0 mm
10:05 -10.7 °C -14.2 °C 34703.1 hPa SW 9 km/h 9 km/h 66 % 0 mm
10:10 -10.5 °C -14.1 °C 34703.1 hPa West 11.9 km/h 11.9 km/h 65 % 0 mm
10:15 -10.3 °C -13.9 °C 34703.1 hPa WNW 15 km/h 15 km/h 65 % 0 mm
10:20 -10.2 °C -13.8 °C 34703.1 hPa WSW 3.1 km/h 3.1 km/h 65 % 0 mm
10:25 -10.1 °C -13.8 °C 34703.1 hPa WSW 9.3 km/h 9.3 km/h 64 % 0 mm
10:30 -9.9 °C -13.7 °C 34703.1 hPa SW 9 km/h   64 % 0 mm
10:35 -9.9 °C -13.7 °C 34669.3 hPa WSW 17.9 km/h 17.9 km/h 64 % 0 mm
10:40 -9.9 °C -13.7 °C 34669.3 hPa NNE 9 km/h 9 km/h 63 % 0 mm
10:45 -9.7 °C -13.6 °C 34669.3 hPa WSW 11.9 km/h 11.9 km/h 63 % 0 mm
10:50 -9.7 °C -13.6 °C 34669.3 hPa NNW 9.3 km/h 9.3 km/h 63 % 0 mm
10:55 -9.6 °C -13.6 °C 34669.3 hPa West 6 km/h 6 km/h 62 % 0 mm
11:00 -9.5 °C -13.5 °C 34669.3 hPa West 9.8 km/h 9.8 km/h 62 % 0 mm
11:05 -9.4 °C -13.4 °C 34703.1 hPa SW 6 km/h 6 km/h 62 % 0 mm
11:10 -9.4 °C -13.6 °C 34703.1 hPa WSW 11.9 km/h 11.9 km/h 61 % 0 mm
11:15 -9.3 °C -13.5 °C 34703.1 hPa SW 6 km/h 6 km/h 61 % 0 mm
11:20 -9.2 °C -13.3 °C 34703.1 hPa WSW 9 km/h 9 km/h 61 % 0 mm
11:25 -9.1 °C -13.3 °C 34703.1 hPa WSW 7.6 km/h 7.6 km/h 61 % 0 mm
11:30 -9.1 °C -13.4 °C 34703.1 hPa WSW 11.9 km/h 11.9 km/h 60 % 0 mm
11:40 -9 °C -13.4 °C 34703.1 hPa ENE 15 km/h 15 km/h 59 % 0 mm
11:45 -9 °C -13.4 °C 34703.1 hPa West 15.3 km/h 15.3 km/h 59 % 0 mm
11:55 -8.8 °C -13.4 °C 34669.3 hPa West 9.3 km/h 9.3 km/h 58 % 0 mm
12:00 -8.8 °C -13.4 °C 34669.3 hPa WNW 15 km/h 15 km/h 58 % 0 mm
12:05 -8.7 °C -13.3 °C 34669.3 hPa SW 11.1 km/h 11.1 km/h 58 % 0 mm
12:10 -8.6 °C -13.4 °C 34669.3 hPa SSW 11.9 km/h 11.9 km/h 57 % 0 mm
12:15 -8.3 °C -13.2 °C 34669.3 hPa WSW 8 km/h 8 km/h 56 % 0 mm
12:20 -8.3 °C -13.2 °C 34669.3 hPa WSW 9 km/h 9 km/h 56 % 0 mm
12:25 -8.3 °C -13.4 °C 34669.3 hPa WSW 20.9 km/h 20.9 km/h 55 % 0 mm
12:30 -8.3 °C -13.4 °C 34669.3 hPa West 16.6 km/h 16.6 km/h 55 % 0 mm
12:45 -8.2 °C -13.4 °C 34669.3 hPa West 11.9 km/h 12.7 km/h 54 % 0 mm
12:50 -8.3 °C -13.5 °C 34635.4 hPa WNW 26.9 km/h 26.9 km/h 54 % 0 mm
12:55 -8.3 °C -13.7 °C 34635.4 hPa SW 17.9 km/h 17.9 km/h 53 % 0 mm
13:05 -8.2 °C -13.6 °C 34635.4 hPa WSW 20.9 km/h 20.9 km/h 53 % 0 mm
13:10 -7.9 °C -13.3 °C 34635.4 hPa WNW 11.9 km/h 11.9 km/h 53 % 0 mm
13:15 -7.8 °C -13.2 °C 34635.4 hPa West 14.5 km/h 14.5 km/h 53 % 0 mm
13:20 -7.7 °C -13.1 °C 34635.4 hPa North 15 km/h 15 km/h 53 % 0 mm
13:25 -7.7 °C -13.1 °C 34635.4 hPa SSW 9 km/h 10.3 km/h 53 % 0 mm
13:30 -7.8 °C -13.3 °C 34635.4 hPa West 23.8 km/h 23.8 km/h 52 % 0 mm
13:45 -7.7 °C -13.2 °C 34635.4 hPa NE 6 km/h 6 km/h 52 % 0 mm
13:50 -7.6 °C -13.1 °C 34635.4 hPa SSW 11.1 km/h 11.1 km/h 52 % 0 mm
14:00 -7.7 °C -13.4 °C 34635.4 hPa SW 15 km/h 15 km/h 51 % 0 mm
14:05 -7.8 °C -13.5 °C 34601.5 hPa SW 11.9 km/h 11.9 km/h 51 % 0 mm
14:10 -7.6 °C -13.3 °C 34601.5 hPa WSW 11.9 km/h 11.9 km/h 51 % 0 mm
14:15 -7.7 °C -13.6 °C 34601.5 hPa West 35.7 km/h 35.7 km/h 50 % 0 mm
14:20 -7.7 °C -13.4 °C 34601.5 hPa ENE 20.9 km/h 20.9 km/h 51 % 0 mm
14:25 -7.8 °C -13.7 °C 34601.5 hPa West 23.8 km/h 23.8 km/h 50 % 0 mm
14:30 -7.8 °C -13.7 °C 34601.5 hPa SW 15 km/h 15 km/h 50 % 0 mm
14:35 -7.7 °C -13.6 °C 34635.4 hPa West 11.9 km/h 11.9 km/h 50 % 0 mm
14:40 -7.7 °C -13.6 °C 34635.4 hPa West 20.9 km/h 20.9 km/h 50 % 0 mm
14:45 -7.6 °C -13.5 °C 34635.4 hPa WSW 15 km/h 15 km/h 50 % 0 mm
14:50 -7.5 °C -13.4 °C 34601.5 hPa WSW 16.6 km/h 16.6 km/h 50 % 0 mm
14:55 -7.3 °C -13.2 °C 34601.5 hPa WSW 14 km/h 14 km/h 50 % 0 mm
15:00 -7.5 °C -13.4 °C 34601.5 hPa WSW 15 km/h 15 km/h 50 % 0 mm
15:05 -7.4 °C -13.4 °C 34635.4 hPa SW 15 km/h 15 km/h 50 % 0 mm
15:10 -7.5 °C -13.4 °C 34635.4 hPa WSW 15 km/h 15 km/h 50 % 0 mm
15:15 -7.5 °C -13.4 °C 34635.4 hPa WSW 7.7 km/h 15.6 km/h 50 % 0 mm
15:20 -7.4 °C -13.4 °C 34601.5 hPa West 7.7 km/h 15.6 km/h 50 % 0 mm
15:30 -7.4 °C -13.3 °C 34601.5 hPa WSW 2.6 km/h 10.3 km/h 50 % 0 mm
15:35 -7.4 °C -13.4 °C 34601.5 hPa WSW 7.7 km/h 15.6 km/h 50 % 0 mm
15:40 -7.5 °C -13.4 °C 34601.5 hPa West 7.7 km/h 15.6 km/h 50 % 0 mm
15:45 -7.6 °C -13.4 °C 34601.5 hPa WSW 5.1 km/h 7.7 km/h 50 % 0 mm
15:50 -7.6 °C -13.5 °C 34635.4 hPa WSW 9 km/h 9 km/h 50 % 0 mm
15:55 -7.7 °C -13.6 °C 34635.4 hPa WSW 9 km/h 9 km/h 50 % 0 mm
16:00 -7.7 °C -13.6 °C 34635.4 hPa WNW 9 km/h 9 km/h 50 % 0 mm
16:05 -7.8 °C -13.7 °C 34635.4 hPa WSW 6.8 km/h 6.8 km/h 50 % 0 mm
16:10 -7.9 °C -13.8 °C 34635.4 hPa WSW 6.8 km/h 6.8 km/h 50 % 0 mm
16:15 -8 °C -13.8 °C 34635.4 hPa West 9 km/h 9 km/h 50 % 0 mm
16:20 -8.1 °C -13.9 °C 34635.4 hPa WSW 9 km/h 9 km/h 50 % 0 mm
16:25 -8.1 °C -13.9 °C 34635.4 hPa West 5.1 km/h 12.9 km/h 50 % 0 mm
16:30 -8.2 °C -14 °C 34635.4 hPa WSW 9 km/h 9 km/h 50 % 0 mm
16:35 -8.3 °C -14.1 °C 34635.4 hPa West 5.1 km/h 15.6 km/h 50 % 0 mm
16:40 -8.3 °C -14.2 °C 34635.4 hPa West 5.1 km/h 12.9 km/h 50 % 0 mm
16:45 -8.3 °C -14.2 °C 34635.4 hPa West 2.6 km/h 15.6 km/h 50 % 0 mm
16:50 -8.4 °C -14.1 °C 34635.4 hPa West 2.6 km/h 7.7 km/h 51 % 0 mm
16:55 -8.4 °C -14.1 °C 34635.4 hPa SE 6 km/h 6 km/h 51 % 0 mm
17:00 -8.5 °C -14.2 °C 34635.4 hPa West 5.1 km/h 7.7 km/h 51 % 0 mm
17:05 -8.5 °C -14.2 °C 34635.4 hPa WSW 5.1 km/h 7.7 km/h 51 % 0 mm
17:10 -8.6 °C -14.3 °C 34635.4 hPa West 5.1 km/h 12.9 km/h 51 % 0 mm
17:15 -8.6 °C -14.3 °C 34635.4 hPa WSW 2.6 km/h 7.7 km/h 51 % 0 mm
17:20 -8.6 °C -14.3 °C 34635.4 hPa West 2.6 km/h 5.1 km/h 51 % 0 mm
17:25 -8.7 °C -14.3 °C 34635.4 hPa Calm   10.3 km/h 51 % 0 mm
17:30 -8.7 °C -14.4 °C 34635.4 hPa Calm   5.1 km/h 51 % 0 mm
17:35 -8.8 °C -14.3 °C 34635.4 hPa SSW 2.6 km/h 5.1 km/h 52 % 0 mm
17:40 -8.9 °C -14.3 °C 34635.4 hPa SSW 2.6 km/h 5.1 km/h 52 % 0 mm
17:45 -8.9 °C -14.4 °C 34635.4 hPa SW 2.6 km/h 5.1 km/h 52 % 0 mm
17:50 -9.1 °C -14.5 °C 34635.4 hPa Calm   5.1 km/h 52 % 0 mm
17:55 -9.1 °C -14.6 °C 34635.4 hPa SSW 2.6 km/h 10.3 km/h 52 % 0 mm
18:00 -9.2 °C -14.6 °C 34635.4 hPa SSW 2.6 km/h 5.1 km/h 52 % 0 mm
18:05 -9.2 °C -14.7 °C 34635.4 hPa SSW 5.1 km/h 7.7 km/h 52 % 0 mm
18:10 -9.3 °C -14.8 °C 34635.4 hPa SW 2.6 km/h 7.7 km/h 52 % 0 mm
18:15 -9.4 °C -14.8 °C 34635.4 hPa West 6 km/h 6 km/h 52 % 0 mm
18:20 -9.4 °C -14.8 °C 34635.4 hPa West 9 km/h 9 km/h 52 % 0 mm
18:25 -9.4 °C -14.9 °C 34635.4 hPa WSW 9 km/h 9 km/h 52 % 0 mm
18:30 -9.3 °C -14.8 °C 34635.4 hPa WSW 5.1 km/h 10.3 km/h 52 % 0 mm
18:35 -9.3 °C -14.8 °C 34635.4 hPa West 6 km/h 6 km/h 52 % 0 mm
18:40 -9.3 °C -14.6 °C 34635.4 hPa West 6.3 km/h 6.3 km/h 53 % 0 mm
18:45 -9.3 °C -14.6 °C 34635.4 hPa West 2.6 km/h 7.7 km/h 53 % 0 mm
18:50 -9.3 °C -14.6 °C 34635.4 hPa West 5.1 km/h 7.7 km/h 53 % 0 mm
18:55 -9.3 °C -14.6 °C 34635.4 hPa West 7.7 km/h 12.9 km/h 53 % 0 mm
19:00 -9.4 °C -14.7 °C 34635.4 hPa West 5.1 km/h 12.9 km/h 53 % 0 mm
19:05 -9.4 °C -14.7 °C 34669.3 hPa West 5.1 km/h 12.9 km/h 53 % 0 mm
19:10 -9.4 °C -14.7 °C 34669.3 hPa WSW 10.3 km/h 10.3 km/h 53 % 0 mm
19:15 -9.4 °C -14.7 °C 34669.3 hPa West 7.7 km/h 12.9 km/h 53 % 0 mm
19:20 -9.4 °C -14.7 °C 34669.3 hPa WSW 5.1 km/h 15.6 km/h 53 % 0 mm
19:25 -9.5 °C -14.8 °C 34669.3 hPa WSW 5.1 km/h 12.9 km/h 53 % 0 mm
19:30 -9.5 °C -14.8 °C 34669.3 hPa WSW 7.7 km/h 15.6 km/h 53 % 0 mm
19:35 -9.4 °C -14.7 °C 34635.4 hPa WSW 12.9 km/h 15.6 km/h 53 % 0 mm
19:40 -9.4 °C -14.7 °C 34635.4 hPa WSW 7.7 km/h 15.6 km/h 53 % 0 mm
19:45 -9.3 °C -14.6 °C 34635.4 hPa West 5.1 km/h 12.9 km/h 53 % 0 mm
19:50 -9.4 °C -14.7 °C 34669.3 hPa West 15 km/h 15 km/h 53 % 0 mm
19:55 -9.5 °C -14.8 °C 34669.3 hPa West 7.7 km/h 12.9 km/h 53 % 0 mm
20:00 -9.4 °C -14.7 °C 34669.3 hPa West 7.7 km/h 20.8 km/h 53 % 0 mm
20:05 -9.4 °C -14.7 °C 34635.4 hPa WSW 9 km/h 9 km/h 53 % 0 mm
20:10 -9.6 °C -14.8 °C 34635.4 hPa WSW 9 km/h 9 km/h 53 % 0 mm
20:15 -9.7 °C -14.9 °C 34635.4 hPa West 5.1 km/h 7.7 km/h 53 % 0 mm
20:20 -9.7 °C -14.9 °C 34669.3 hPa WSW 5.1 km/h 7.7 km/h 53 % 0 mm
20:25 -9.7 °C -15 °C 34669.3 hPa WNW 6 km/h 6 km/h 53 % 0 mm
20:30 -9.7 °C -15 °C 34669.3 hPa WSW 7.7 km/h 12.9 km/h 53 % 0 mm
20:35 -9.8 °C -15.1 °C 34669.3 hPa WSW 9.3 km/h 9.3 km/h 53 % 0 mm
20:40 -9.8 °C -15.1 °C 34669.3 hPa WSW 5.1 km/h 12.9 km/h 53 % 0 mm
20:45 -9.8 °C -15.1 °C 34669.3 hPa WSW 7.7 km/h 15.6 km/h 53 % 0 mm
20:50 -9.8 °C -15.1 °C 34669.3 hPa WSW 5.1 km/h 10.3 km/h 53 % 0 mm
20:55 -9.8 °C -14.9 °C 34669.3 hPa West 7.7 km/h 15.6 km/h 54 % 0 mm
21:00 -9.8 °C -14.9 °C 34669.3 hPa WSW 12.9 km/h 20.8 km/h 54 % 0 mm
21:05 -9.8 °C -14.9 °C 34669.3 hPa WSW 7.7 km/h 18.2 km/h 54 % 0 mm
21:10 -9.8 °C -14.9 °C 34669.3 hPa WSW 5.1 km/h 18.2 km/h 54 % 0 mm
21:15 -9.8 °C -14.9 °C 34669.3 hPa West 5.1 km/h 10.3 km/h 54 % 0 mm
21:20 -9.8 °C -14.9 °C 34669.3 hPa WSW 7.7 km/h 12.9 km/h 54 % 0 mm
21:25 -9.8 °C -14.9 °C 34669.3 hPa West 2.6 km/h 12.9 km/h 54 % 0 mm
21:30 -9.9 °C -15 °C 34669.3 hPa Calm   5.1 km/h 54 % 0 mm
21:35 -9.9 °C -15.1 °C 34669.3 hPa Calm   5.1 km/h 54 % 0 mm
21:40 -10.1 °C -15.2 °C 34669.3 hPa SW 2.6 km/h 5.1 km/h 54 % 0 mm
21:45 -10.1 °C -15.1 °C 34669.3 hPa Calm     55 % 0 mm
21:50 -10.2 °C -15.1 °C 34669.3 hPa SSW 2.6 km/h 2.6 km/h 55 % 0 mm
21:55 -10.2 °C -15.2 °C 34669.3 hPa Calm   2.6 km/h 55 % 0 mm
22:00 -10.2 °C -15.2 °C 34669.3 hPa SW 5.1 km/h 7.7 km/h 55 % 0 mm
22:05 -10.2 °C -15.2 °C 34703.1 hPa Calm   5.1 km/h 55 % 0 mm
22:10 -10.3 °C -15.2 °C 34703.1 hPa Calm   5.1 km/h 55 % 0 mm
22:15 -10.3 °C -15.2 °C 34703.1 hPa WNW 2.6 km/h 5.1 km/h 55 % 0 mm
22:20 -10.3 °C -15.2 °C 34703.1 hPa West 5.1 km/h 7.7 km/h 55 % 0 mm
22:25 -10.3 °C -15.1 °C 34703.1 hPa Calm   5.1 km/h 56 % 0 mm
22:30 -10.3 °C -15.1 °C 34703.1 hPa West 2.6 km/h 12.9 km/h 56 % 0 mm
22:35 -10.4 °C -15.2 °C 34740.4 hPa West 2.6 km/h 5.1 km/h 56 % 0 mm
22:40 -10.4 °C -15.2 °C 34740.4 hPa West 2.6 km/h 5.1 km/h 56 % 0 mm
22:45 -10.5 °C -15.1 °C 34740.4 hPa WNW 2.6 km/h 5.1 km/h 57 % 0 mm
22:50 -10.6 °C -15.2 °C 34740.4 hPa Calm   5.1 km/h 57 % 0 mm
22:55 -10.6 °C -15.2 °C 34740.4 hPa ENE 2.6 km/h 5.1 km/h 57 % 0 mm
23:00 -10.6 °C -15.2 °C 34740.4 hPa WNW 3.1 km/h   57 % 0 mm
23:05 -10.6 °C -15.1 °C 34740.4 hPa Calm   2.6 km/h 58 % 0 mm
23:10 -10.6 °C -15.1 °C 34740.4 hPa Calm     58 % 0 mm
23:15 -10.6 °C -15.1 °C 34740.4 hPa Calm   2.6 km/h 58 % 0 mm
23:20 -10.7 °C -15.2 °C 34740.4 hPa Calm     58 % 0 mm
23:25 -10.7 °C -15 °C 34740.4 hPa Calm   2.6 km/h 59 % 0 mm
23:30 -10.7 °C -15.1 °C 34740.4 hPa Calm     59 % 0 mm
23:35 -10.8 °C -15.2 °C 34740.4 hPa NW 2.6 km/h 2.6 km/h 59 % 0 mm
23:40 -10.9 °C -15.1 °C 34740.4 hPa Calm   2.6 km/h 60 % 0 mm
23:45 -10.9 °C -15.1 °C 34740.4 hPa Calm   5.1 km/h 60 % 0 mm
23:50 -11.1 °C -15.2 °C 34740.4 hPa NNE 6 km/h 6 km/h 60 % 0 mm
23:55 -11.1 °C -15.3 °C 34740.4 hPa Calm   5.1 km/h 60 % 0 mm
Meteo Sesrovires
Elogis d' Weather Underground - 1.75 mb

Guio original per  Jim McMurry - jmcmurry@mwt.net Adaptat per a la plantilla per  Wim van der Kuil - Leuven-Template.eu

Trobareu la nostra informacio del temps tambe a:

Weather Underground

AWEKAS